Hauptseite
METAR-TAF:

METAR-TAF

Flughäfen :

Flughafen Madrid-Barajas

Madrid, Spanien

Breite: 40-27N, Länge: 003-33W, Höhe: 609 m

Beobachtung

Neuester Wetterbericht von vor 33 Minuten, um 00:00 UTC
Wind 4 kt aus Nord/Nordwest, variierte zwischen Nordwest und Nord
Temperatur 4°C
Luftfeuchtigkeit 87%
Luftdruck 1026 hPa
Sichtweite 10 km oder mehr
keine Wolken unter 1500 m und keine Kumulonimbus oder Gewitterwolken

METAR: LEMD 210000Z 34004KT 310V010 CAVOK 04/02 Q1026 NOSIG

Zeit: 01:33 (00:33 UTC)

Prognose

Neuester Wetterbericht von vor 1 Stunde und 33 Minuten, um 23:00 UTC
Gültige Prognose vom 21 um 00 UTC bis 22 um 06 UTC
Wind 5 kt aus Nord/Nordwest
Sichtweite 10 km oder mehr
keine Wolken unter 1500 m und keine Kumulonimbus oder Gewitterwolken
Zeitweise
vom 21 um 12 UTC bis 21 um 19 UTC
Wind 7 kt aus Süd/Südwest

TAF: LEMD 202300Z 2100/2206 33005KT CAVOK TX19/2115Z TNM00/2106Z TEMPO 2112/2119 20007KT

Wetterbeobachtungen und Prognosen von mehr als 4000 Flughäfen (METAR und TAF Bericht).

Die verfügbaren Stationen werden durch gelbe und rote Markierungen auf der Karte dargestellt.

Führen Sie die Maus auf sie, um den Namen der Station zu sehen.

Darauf klicken, um die Beobachtung von Wetterbeobachtungen und Prognosen zu sehen.

Um die Karte zu ändern : klicken Sie auf den grünen Tasten mit einem schwarzen Kreuz Zum Vergrößern, auf den grünen Button mit einem Gedankenstrich zu verkleinern, oder auf die grünen Pfeile für benachbarte Karten.


METAR-TAF: